sensor_id;sensor_type;location;lat;lon;timestamp;pressure;altitude;pressure_sealevel;temperature;humidity
63663;BME280;49815;51.618;0.336;2023-03-05T00:00:41;101801.42;;;3.85;47.07
63663;BME280;49815;51.618;0.336;2023-03-05T00:03:06;101796.88;;;4.33;46.55
63663;BME280;49815;51.618;0.336;2023-03-05T00:05:31;101793.64;;;4.68;46.00
63663;BME280;49815;51.618;0.336;2023-03-05T00:07:56;101789.44;;;4.53;45.67
63663;BME280;49815;51.618;0.336;2023-03-05T00:10:22;101789.38;;;3.67;46.87
63663;BME280;49815;51.618;0.336;2023-03-05T00:12:47;101789.77;;;2.86;48.05
63663;BME280;49815;51.618;0.336;2023-03-05T00:15:13;101790.28;;;3.22;48.88
63663;BME280;49815;51.618;0.336;2023-03-05T00:17:38;101786.50;;;2.31;50.00
63663;BME280;49815;51.618;0.336;2023-03-05T00:20:05;101786.25;;;3.41;48.70
63663;BME280;49815;51.618;0.336;2023-03-05T00:22:30;101786.10;;;2.45;49.03
63663;BME280;49815;51.618;0.336;2023-03-05T00:24:55;101784.89;;;3.32;49.48
63663;BME280;49815;51.618;0.336;2023-03-05T00:27:21;101777.70;;;4.42;46.67
63663;BME280;49815;51.618;0.336;2023-03-05T00:29:46;101776.73;;;4.93;45.40
63663;BME280;49815;51.618;0.336;2023-03-05T00:32:11;101775.19;;;4.85;45.17
63663;BME280;49815;51.618;0.336;2023-03-05T00:34:36;101774.53;;;4.31;45.77
63663;BME280;49815;51.618;0.336;2023-03-05T00:37:03;101772.15;;;3.83;46.12
63663;BME280;49815;51.618;0.336;2023-03-05T00:39:28;101775.22;;;3.58;47.52
63663;BME280;49815;51.618;0.336;2023-03-05T00:41:52;101770.38;;;3.98;46.43
63663;BME280;49815;51.618;0.336;2023-03-05T00:44:18;101768.67;;;4.72;45.16
63663;BME280;49815;51.618;0.336;2023-03-05T00:46:44;101771.39;;;4.36;46.22
63663;BME280;49815;51.618;0.336;2023-03-05T00:49:09;101770.87;;;2.84;47.75
63663;BME280;49815;51.618;0.336;2023-03-05T00:51:35;101761.91;;;4.07;46.57
63663;BME280;49815;51.618;0.336;2023-03-05T00:54:00;101758.29;;;4.43;45.46
63663;BME280;49815;51.618;0.336;2023-03-05T00:56:26;101757.55;;;4.57;44.94
63663;BME280;49815;51.618;0.336;2023-03-05T00:58:51;101758.11;;;4.45;45.16
63663;BME280;49815;51.618;0.336;2023-03-05T01:01:16;101755.72;;;4.21;45.50
63663;BME280;49815;51.618;0.336;2023-03-05T01:03:42;101756.97;;;3.84;45.43
63663;BME280;49815;51.618;0.336;2023-03-05T01:06:10;101754.73;;;2.13;47.76
63663;BME280;49815;51.618;0.336;2023-03-05T01:08:33;101751.14;;;3.02;47.33
63663;BME280;49815;51.618;0.336;2023-03-05T01:10:58;101751.12;;;3.30;46.77
63663;BME280;49815;51.618;0.336;2023-03-05T01:13:24;101746.62;;;2.52;48.88
63663;BME280;49815;51.618;0.336;2023-03-05T01:15:49;101745.53;;;2.92;48.37
63663;BME280;49815;51.618;0.336;2023-03-05T01:18:14;101743.63;;;3.73;46.20
63663;BME280;49815;51.618;0.336;2023-03-05T01:20:40;101742.83;;;2.19;48.48
63663;BME280;49815;51.618;0.336;2023-03-05T01:23:05;101747.24;;;0.06;52.47
63663;BME280;49815;51.618;0.336;2023-03-05T01:25:31;101732.87;;;1.93;49.89
63663;BME280;49815;51.618;0.336;2023-03-05T01:27:56;101728.90;;;3.08;47.78
63663;BME280;49815;51.618;0.336;2023-03-05T01:30:21;101727.86;;;3.86;46.00
63663;BME280;49815;51.618;0.336;2023-03-05T01:32:46;101726.95;;;2.38;47.98
63663;BME280;49815;51.618;0.336;2023-03-05T01:35:16;101721.73;;;2.08;48.43
63663;BME280;49815;51.618;0.336;2023-03-05T01:37:37;101719.54;;;2.03;49.09
63663;BME280;49815;51.618;0.336;2023-03-05T01:40:04;101716.45;;;2.14;48.54
63663;BME280;49815;51.618;0.336;2023-03-05T01:42:28;101711.80;;;2.46;48.58
63663;BME280;49815;51.618;0.336;2023-03-05T01:45:00;101703.79;;;2.69;47.85
63663;BME280;49815;51.618;0.336;2023-03-05T01:47:20;101696.93;;;4.05;45.52
63663;BME280;49815;51.618;0.336;2023-03-05T01:49:45;101696.03;;;3.77;45.41
63663;BME280;49815;51.618;0.336;2023-03-05T01:52:13;101692.62;;;2.39;48.62
63663;BME280;49815;51.618;0.336;2023-03-05T01:54:39;101690.82;;;2.46;47.46
63663;BME280;49815;51.618;0.336;2023-03-05T01:57:06;101689.43;;;1.86;48.99
63663;BME280;49815;51.618;0.336;2023-03-05T01:59:26;101688.00;;;2.43;48.07
63663;BME280;49815;51.618;0.336;2023-03-05T02:01:54;101684.66;;;1.98;48.50
63663;BME280;49815;51.618;0.336;2023-03-05T02:04:18;101679.26;;;2.59;47.86
63663;BME280;49815;51.618;0.336;2023-03-05T02:06:44;101675.49;;;3.09;47.10
63663;BME280;49815;51.618;0.336;2023-03-05T02:09:08;101683.99;;;0.10;51.55
63663;BME280;49815;51.618;0.336;2023-03-05T02:11:34;101671.20;;;1.28;48.68
63663;BME280;49815;51.618;0.336;2023-03-05T02:13:59;101671.80;;;1.96;48.50
63663;BME280;49815;51.618;0.336;2023-03-05T02:16:24;101671.16;;;1.32;49.59
63663;BME280;49815;51.618;0.336;2023-03-05T02:18:49;101666.13;;;2.87;47.09
63663;BME280;49815;51.618;0.336;2023-03-05T02:23:39;101664.99;;;1.23;49.11
63663;BME280;49815;51.618;0.336;2023-03-05T02:26:07;101657.32;;;3.24;46.30
63663;BME280;49815;51.618;0.336;2023-03-05T02:28:33;101665.22;;;0.64;50.58
63663;BME280;49815;51.618;0.336;2023-03-05T02:30:56;101652.56;;;2.69;48.62
63663;BME280;49815;51.618;0.336;2023-03-05T02:33:21;101646.24;;;2.24;48.31
63663;BME280;49815;51.618;0.336;2023-03-05T02:35:47;101648.40;;;0.17;51.64
63663;BME280;49815;51.618;0.336;2023-03-05T02:38:13;101639.44;;;1.94;48.34
63663;BME280;49815;51.618;0.336;2023-03-05T02:40:37;101636.38;;;2.01;47.86
63663;BME280;49815;51.618;0.336;2023-03-05T02:43:03;101634.53;;;1.77;47.86
63663;BME280;49815;51.618;0.336;2023-03-05T02:45:28;101636.32;;;1.50;49.53
63663;BME280;49815;51.618;0.336;2023-03-05T02:47:53;101638.11;;;1.13;50.07
63663;BME280;49815;51.618;0.336;2023-03-05T02:50:18;101628.33;;;2.36;48.38
63663;BME280;49815;51.618;0.336;2023-03-05T02:52:44;101624.84;;;1.17;49.23
63663;BME280;49815;51.618;0.336;2023-03-05T02:55:10;101620.74;;;1.99;48.16
63663;BME280;49815;51.618;0.336;2023-03-05T02:57:36;101621.49;;;1.04;50.25
63663;BME280;49815;51.618;0.336;2023-03-05T03:00:02;101612.03;;;1.78;48.45
63663;BME280;49815;51.618;0.336;2023-03-05T03:02:26;101607.15;;;2.95;46.90
63663;BME280;49815;51.618;0.336;2023-03-05T03:04:52;101606.59;;;2.21;48.02
63663;BME280;49815;51.618;0.336;2023-03-05T03:07:17;101599.00;;;3.46;45.86
63663;BME280;49815;51.618;0.336;2023-03-05T03:09:43;101592.38;;;3.35;45.32
63663;BME280;49815;51.618;0.336;2023-03-05T03:12:09;101596.66;;;1.36;48.24
63663;BME280;49815;51.618;0.336;2023-03-05T03:14:35;101593.13;;;1.47;48.81
63663;BME280;49815;51.618;0.336;2023-03-05T03:16:59;101590.61;;;1.73;49.42
63663;BME280;49815;51.618;0.336;2023-03-05T03:19:25;101588.64;;;0.87;49.55
63663;BME280;49815;51.618;0.336;2023-03-05T03:21:51;101578.30;;;2.83;47.01
63663;BME280;49815;51.618;0.336;2023-03-05T03:24:15;101578.20;;;0.83;50.05
63663;BME280;49815;51.618;0.336;2023-03-05T03:26:41;101569.68;;;2.16;47.95
63663;BME280;49815;51.618;0.336;2023-03-05T03:29:06;101567.76;;;1.95;47.89
63663;BME280;49815;51.618;0.336;2023-03-05T03:31:31;101566.85;;;0.35;49.76
63663;BME280;49815;51.618;0.336;2023-03-05T03:33:56;101566.60;;;0.50;51.22
63663;BME280;49815;51.618;0.336;2023-03-05T03:36:22;101567.16;;;-0.29;52.93
63663;BME280;49815;51.618;0.336;2023-03-05T03:38:47;101561.46;;;-0.28;53.76
63663;BME280;49815;51.618;0.336;2023-03-05T03:41:13;101559.61;;;-0.49;53.60
63663;BME280;49815;51.618;0.336;2023-03-05T03:43:38;101557.75;;;-0.82;54.13
63663;BME280;49815;51.618;0.336;2023-03-05T03:46:04;101550.65;;;0.41;51.58
63663;BME280;49815;51.618;0.336;2023-03-05T03:48:28;101555.74;;;-0.08;53.00
63663;BME280;49815;51.618;0.336;2023-03-05T03:50:54;101555.65;;;-0.57;54.14
63663;BME280;49815;51.618;0.336;2023-03-05T03:53:19;101550.55;;;0.75;51.46
63663;BME280;49815;51.618;0.336;2023-03-05T03:55:45;101552.54;;;-0.81;55.05
63663;BME280;49815;51.618;0.336;2023-03-05T03:58:10;101548.90;;;0.22;53.06
63663;BME280;49815;51.618;0.336;2023-03-05T04:00:35;101548.22;;;-0.57;53.15
63663;BME280;49815;51.618;0.336;2023-03-05T04:03:00;101541.63;;;0.44;52.96
63663;BME280;49815;51.618;0.336;2023-03-05T04:05:26;101536.75;;;0.39;52.11
63663;BME280;49815;51.618;0.336;2023-03-05T04:07:52;101539.19;;;0.19;51.65
63663;BME280;49815;51.618;0.336;2023-03-05T04:10:16;101539.46;;;-0.33;53.64
63663;BME280;49815;51.618;0.336;2023-03-05T04:12:42;101540.16;;;0.35;52.74
63663;BME280;49815;51.618;0.336;2023-03-05T04:15:09;101536.15;;;-0.52;54.62
63663;BME280;49815;51.618;0.336;2023-03-05T04:17:33;101530.95;;;0.58;51.72
63663;BME280;49815;51.618;0.336;2023-03-05T04:19:59;101528.66;;;0.07;51.33
63663;BME280;49815;51.618;0.336;2023-03-05T04:22:24;101526.86;;;-0.59;54.99
63663;BME280;49815;51.618;0.336;2023-03-05T04:24:50;101527.44;;;-1.03;55.08
63663;BME280;49815;51.618;0.336;2023-03-05T04:27:15;101526.56;;;-0.84;55.58
63663;BME280;49815;51.618;0.336;2023-03-05T04:29:40;101522.37;;;0.49;52.57
63663;BME280;49815;51.618;0.336;2023-03-05T04:32:06;101514.47;;;1.32;50.19
63663;BME280;49815;51.618;0.336;2023-03-05T04:34:31;101518.12;;;0.17;51.96
63663;BME280;49815;51.618;0.336;2023-03-05T04:36:57;101513.30;;;1.28;49.74
63663;BME280;49815;51.618;0.336;2023-03-05T04:39:22;101519.59;;;0.14;51.89
63663;BME280;49815;51.618;0.336;2023-03-05T04:41:48;101517.63;;;-0.68;54.31
63663;BME280;49815;51.618;0.336;2023-03-05T04:44:14;101517.23;;;-1.00;54.44
63663;BME280;49815;51.618;0.336;2023-03-05T04:46:39;101514.38;;;-0.86;55.44
63663;BME280;49815;51.618;0.336;2023-03-05T04:49:04;101511.22;;;0.47;51.72
63663;BME280;49815;51.618;0.336;2023-03-05T04:51:30;101509.65;;;-0.35;54.02
63663;BME280;49815;51.618;0.336;2023-03-05T04:53:55;101508.54;;;0.06;53.08
63663;BME280;49815;51.618;0.336;2023-03-05T04:56:21;101505.40;;;-0.35;53.91
63663;BME280;49815;51.618;0.336;2023-03-05T04:58:46;101502.33;;;-0.43;52.76
63663;BME280;49815;51.618;0.336;2023-03-05T05:01:12;101492.93;;;1.41;49.65
63663;BME280;49815;51.618;0.336;2023-03-05T05:03:37;101492.69;;;0.46;50.02
63663;BME280;49815;51.618;0.336;2023-03-05T05:06:02;101497.75;;;0.38;51.40
63663;BME280;49815;51.618;0.336;2023-03-05T05:08:28;101496.36;;;-0.28;51.89
63663;BME280;49815;51.618;0.336;2023-03-05T05:10:56;101484.22;;;0.43;50.54
63663;BME280;49815;51.618;0.336;2023-03-05T05:13:19;101485.69;;;0.28;51.02
63663;BME280;49815;51.618;0.336;2023-03-05T05:15:44;101477.76;;;0.76;49.78
63663;BME280;49815;51.618;0.336;2023-03-05T05:18:09;101482.86;;;-0.06;51.16
63663;BME280;49815;51.618;0.336;2023-03-05T05:20:35;101470.92;;;1.14;49.00
63663;BME280;49815;51.618;0.336;2023-03-05T05:23:00;101466.90;;;0.90;48.28
63663;BME280;49815;51.618;0.336;2023-03-05T05:25:25;101468.63;;;0.00;50.83
63663;BME280;49815;51.618;0.336;2023-03-05T05:27:50;101467.77;;;0.26;50.44
63663;BME280;49815;51.618;0.336;2023-03-05T05:30:16;101461.68;;;0.73;48.88
63663;BME280;49815;51.618;0.336;2023-03-05T05:32:42;101461.12;;;0.30;51.17
63663;BME280;49815;51.618;0.336;2023-03-05T05:35:09;101451.72;;;1.23;48.76
63663;BME280;49815;51.618;0.336;2023-03-05T05:37:33;101449.44;;;0.47;49.39
63663;BME280;49815;51.618;0.336;2023-03-05T05:39:58;101453.26;;;0.14;50.07
63663;BME280;49815;51.618;0.336;2023-03-05T05:42:24;101449.22;;;0.45;49.68
63663;BME280;49815;51.618;0.336;2023-03-05T05:44:48;101447.42;;;0.42;49.43
63663;BME280;49815;51.618;0.336;2023-03-05T05:47:14;101443.89;;;0.53;50.01
63663;BME280;49815;51.618;0.336;2023-03-05T05:49:39;101447.36;;;-0.49;51.53
63663;BME280;49815;51.618;0.336;2023-03-05T05:52:05;101444.68;;;0.53;50.31
63663;BME280;49815;51.618;0.336;2023-03-05T05:54:30;101444.26;;;-1.29;52.55
63663;BME280;49815;51.618;0.336;2023-03-05T05:56:55;101440.46;;;-0.25;50.53
63663;BME280;49815;51.618;0.336;2023-03-05T05:59:20;101438.02;;;-0.03;50.77
63663;BME280;49815;51.618;0.336;2023-03-05T06:01:46;101433.34;;;0.21;49.68
63663;BME280;49815;51.618;0.336;2023-03-05T06:04:12;101431.95;;;0.46;49.45
63663;BME280;49815;51.618;0.336;2023-03-05T06:06:37;101436.09;;;-0.11;50.54
63663;BME280;49815;51.618;0.336;2023-03-05T06:09:02;101430.29;;;-0.43;50.56
63663;BME280;49815;51.618;0.336;2023-03-05T06:11:27;101426.20;;;1.39;48.26
63663;BME280;49815;51.618;0.336;2023-03-05T06:13:52;101427.23;;;-0.64;50.20
63663;BME280;49815;51.618;0.336;2023-03-05T06:16:20;101426.57;;;-1.36;53.60
63663;BME280;49815;51.618;0.336;2023-03-05T06:18:43;101424.68;;;-0.84;52.26
63663;BME280;49815;51.618;0.336;2023-03-05T06:21:11;101423.26;;;-1.17;52.96
63663;BME280;49815;51.618;0.336;2023-03-05T06:23:34;101414.64;;;0.51;49.10
63663;BME280;49815;51.618;0.336;2023-03-05T06:26:01;101409.02;;;2.02;46.90
63663;BME280;49815;51.618;0.336;2023-03-05T06:28:25;101411.95;;;1.44;47.35
63663;BME280;49815;51.618;0.336;2023-03-05T06:30:59;101415.37;;;-0.38;49.79
63663;BME280;49815;51.618;0.336;2023-03-05T06:33:16;101412.96;;;0.68;48.57
63663;BME280;49815;51.618;0.336;2023-03-05T06:35:42;101409.45;;;0.42;48.72
63663;BME280;49815;51.618;0.336;2023-03-05T06:38:08;101411.94;;;0.86;46.23
63663;BME280;49815;51.618;0.336;2023-03-05T06:40:33;101407.83;;;0.97;47.16
63663;BME280;49815;51.618;0.336;2023-03-05T06:42:59;101404.81;;;1.02;47.00
63663;BME280;49815;51.618;0.336;2023-03-05T06:45:25;101406.48;;;1.50;46.48
63663;BME280;49815;51.618;0.336;2023-03-05T06:47:50;101403.69;;;2.08;45.57
63663;BME280;49815;51.618;0.336;2023-03-05T06:50:16;101412.17;;;1.08;46.27
63663;BME280;49815;51.618;0.336;2023-03-05T06:52:42;101410.00;;;1.63;45.02
63663;BME280;49815;51.618;0.336;2023-03-05T06:55:09;101409.66;;;2.01;44.55
63663;BME280;49815;51.618;0.336;2023-03-05T06:57:35;101411.10;;;1.30;45.04
63663;BME280;49815;51.618;0.336;2023-03-05T07:00:00;101414.15;;;1.44;45.07
63663;BME280;49815;51.618;0.336;2023-03-05T07:02:25;101417.98;;;1.55;45.87
63663;BME280;49815;51.618;0.336;2023-03-05T07:04:51;101415.55;;;1.29;45.70
63663;BME280;49815;51.618;0.336;2023-03-05T07:07:16;101414.04;;;2.30;44.01
63663;BME280;49815;51.618;0.336;2023-03-05T07:09:42;101412.00;;;2.38;43.15
63663;BME280;49815;51.618;0.336;2023-03-05T07:12:08;101412.29;;;1.86;43.66
63663;BME280;49815;51.618;0.336;2023-03-05T07:14:33;101409.84;;;2.12;43.65
63663;BME280;49815;51.618;0.336;2023-03-05T07:16:59;101409.56;;;1.80;43.71
63663;BME280;49815;51.618;0.336;2023-03-05T07:19:24;101408.32;;;1.81;43.58
63663;BME280;49815;51.618;0.336;2023-03-05T07:21:49;101410.33;;;-0.19;47.31
63663;BME280;49815;51.618;0.336;2023-03-05T07:24:15;101406.35;;;1.83;44.77
63663;BME280;49815;51.618;0.336;2023-03-05T07:26:40;101407.93;;;1.03;45.92
63663;BME280;49815;51.618;0.336;2023-03-05T07:29:06;101402.07;;;1.49;44.81
63663;BME280;49815;51.618;0.336;2023-03-05T07:31:31;101399.04;;;1.58;44.30
63663;BME280;49815;51.618;0.336;2023-03-05T07:33:57;101397.59;;;1.50;44.89
63663;BME280;49815;51.618;0.336;2023-03-05T07:36:22;101395.03;;;2.44;43.13
63663;BME280;49815;51.618;0.336;2023-03-05T07:38:48;101398.11;;;2.86;42.55
63663;BME280;49815;51.618;0.336;2023-03-05T07:41:15;101396.82;;;1.83;44.43
63663;BME280;49815;51.618;0.336;2023-03-05T07:43:38;101391.73;;;1.72;43.72
63663;BME280;49815;51.618;0.336;2023-03-05T07:46:05;101386.47;;;3.07;42.04
63663;BME280;49815;51.618;0.336;2023-03-05T07:48:29;101387.55;;;3.48;41.43
63663;BME280;49815;51.618;0.336;2023-03-05T07:51:00;101391.48;;;3.61;41.13
63663;BME280;49815;51.618;0.336;2023-03-05T07:53:20;101391.25;;;3.80;40.89
63663;BME280;49815;51.618;0.336;2023-03-05T07:55:46;101391.61;;;2.17;42.73
63663;BME280;49815;51.618;0.336;2023-03-05T07:58:11;101396.43;;;1.57;45.06
63663;BME280;49815;51.618;0.336;2023-03-05T08:00:36;101399.64;;;1.04;45.90
63663;BME280;49815;51.618;0.336;2023-03-05T08:03:01;101399.27;;;1.02;46.06
63663;BME280;49815;51.618;0.336;2023-03-05T08:05:27;101398.31;;;0.55;45.92
63663;BME280;49815;51.618;0.336;2023-03-05T08:07:52;101387.15;;;2.84;43.22
63663;BME280;49815;51.618;0.336;2023-03-05T08:10:17;101386.40;;;3.09;41.72
63663;BME280;49815;51.618;0.336;2023-03-05T08:12:42;101388.93;;;3.72;41.21
63663;BME280;49815;51.618;0.336;2023-03-05T08:15:09;101386.55;;;2.67;42.25
63663;BME280;49815;51.618;0.336;2023-03-05T08:17:33;101386.63;;;2.46;43.36
63663;BME280;49815;51.618;0.336;2023-03-05T08:19:58;101387.10;;;3.94;40.54
63663;BME280;49815;51.618;0.336;2023-03-05T08:22:24;101387.71;;;2.56;41.70
63663;BME280;49815;51.618;0.336;2023-03-05T08:24:49;101380.96;;;3.25;41.28
63663;BME280;49815;51.618;0.336;2023-03-05T08:27:14;101381.74;;;3.21;41.39
63663;BME280;49815;51.618;0.336;2023-03-05T08:29:40;101384.04;;;1.79;42.63
63663;BME280;49815;51.618;0.336;2023-03-05T08:32:05;101380.89;;;2.66;42.25
63663;BME280;49815;51.618;0.336;2023-03-05T08:34:31;101373.44;;;2.83;42.25
63663;BME280;49815;51.618;0.336;2023-03-05T08:36:56;101372.73;;;1.98;44.04
63663;BME280;49815;51.618;0.336;2023-03-05T08:39:21;101371.77;;;3.64;41.70
63663;BME280;49815;51.618;0.336;2023-03-05T08:41:47;101368.53;;;4.16;40.84
63663;BME280;49815;51.618;0.336;2023-03-05T08:44:12;101365.20;;;4.20;39.88
63663;BME280;49815;51.618;0.336;2023-03-05T08:46:38;101368.55;;;1.14;44.33
63663;BME280;49815;51.618;0.336;2023-03-05T08:49:03;101367.38;;;1.54;43.87
63663;BME280;49815;51.618;0.336;2023-03-05T08:51:29;101366.10;;;3.11;41.82
63663;BME280;49815;51.618;0.336;2023-03-05T08:53:54;101360.52;;;4.04;40.09
63663;BME280;49815;51.618;0.336;2023-03-05T08:56:19;101354.79;;;4.70;39.63
63663;BME280;49815;51.618;0.336;2023-03-05T08:58:44;101347.99;;;3.86;39.45
63663;BME280;49815;51.618;0.336;2023-03-05T09:01:10;101349.17;;;3.57;39.99
63663;BME280;49815;51.618;0.336;2023-03-05T09:03:35;101343.79;;;4.04;39.88
63663;BME280;49815;51.618;0.336;2023-03-05T09:06:02;101337.88;;;4.31;39.77
63663;BME280;49815;51.618;0.336;2023-03-05T09:08:26;101333.36;;;4.84;38.94
63663;BME280;49815;51.618;0.336;2023-03-05T09:10:51;101335.79;;;3.08;41.77
63663;BME280;49815;51.618;0.336;2023-03-05T09:13:16;101323.91;;;4.67;39.77
63663;BME280;49815;51.618;0.336;2023-03-05T09:15:42;101333.06;;;1.60;43.11
63663;BME280;49815;51.618;0.336;2023-03-05T09:18:07;101334.18;;;3.03;41.63
63663;BME280;49815;51.618;0.336;2023-03-05T09:20:32;101322.47;;;4.31;39.96
63663;BME280;49815;51.618;0.336;2023-03-05T09:22:57;101318.72;;;4.72;38.24
63663;BME280;49815;51.618;0.336;2023-03-05T09:25:22;101318.23;;;4.79;38.06
63663;BME280;49815;51.618;0.336;2023-03-05T09:27:48;101321.38;;;3.74;40.09
63663;BME280;49815;51.618;0.336;2023-03-05T09:30:14;101318.55;;;4.45;39.20
63663;BME280;49815;51.618;0.336;2023-03-05T09:32:39;101313.78;;;4.95;37.67
63663;BME280;49815;51.618;0.336;2023-03-05T09:35:05;101313.33;;;4.73;37.34
63663;BME280;49815;51.618;0.336;2023-03-05T09:37:30;101312.45;;;4.70;37.75
63663;BME280;49815;51.618;0.336;2023-03-05T09:39:55;101313.52;;;2.84;40.03
63663;BME280;49815;51.618;0.336;2023-03-05T09:42:28;101315.51;;;2.66;40.92
63663;BME280;49815;51.618;0.336;2023-03-05T09:44:53;101308.62;;;2.75;41.20
63663;BME280;49815;51.618;0.336;2023-03-05T09:47:24;101298.79;;;4.25;39.96
63663;BME280;49815;51.618;0.336;2023-03-05T09:49:45;101303.17;;;3.66;39.66
63663;BME280;49815;51.618;0.336;2023-03-05T09:52:06;101294.13;;;3.78;39.59
63663;BME280;49815;51.618;0.336;2023-03-05T09:54:33;101293.09;;;5.15;38.14
63663;BME280;49815;51.618;0.336;2023-03-05T09:56:56;101303.44;;;2.70;40.79
63663;BME280;49815;51.618;0.336;2023-03-05T09:59:26;101293.03;;;4.29;39.78
63663;BME280;49815;51.618;0.336;2023-03-05T10:01:45;101287.65;;;3.92;39.14
63663;BME280;49815;51.618;0.336;2023-03-05T10:04:14;101285.90;;;3.82;38.76
63663;BME280;49815;51.618;0.336;2023-03-05T10:06:41;101280.67;;;5.14;37.27
63663;BME280;49815;51.618;0.336;2023-03-05T10:09:06;101275.42;;;4.52;37.42
63663;BME280;49815;51.618;0.336;2023-03-05T10:11:39;101271.53;;;4.93;37.86
63663;BME280;49815;51.618;0.336;2023-03-05T10:13:52;101261.02;;;5.90;35.95
63663;BME280;49815;51.618;0.336;2023-03-05T10:16:32;101272.55;;;1.63;41.86
63663;BME280;49815;51.618;0.336;2023-03-05T10:18:49;101264.75;;;4.58;38.53
63663;BME280;49815;51.618;0.336;2023-03-05T10:21:11;101258.23;;;5.53;36.64
63663;BME280;49815;51.618;0.336;2023-03-05T10:23:44;101257.97;;;6.03;36.07
63663;BME280;49815;51.618;0.336;2023-03-05T10:26:05;101260.56;;;5.69;36.13
63663;BME280;49815;51.618;0.336;2023-03-05T10:28:33;101256.99;;;5.32;37.52
63663;BME280;49815;51.618;0.336;2023-03-05T10:31:02;101245.87;;;6.07;35.78
63663;BME280;49815;51.618;0.336;2023-03-05T10:33:21;101246.05;;;5.70;35.71
63663;BME280;49815;51.618;0.336;2023-03-05T10:35:53;101243.36;;;6.78;34.60
63663;BME280;49815;51.618;0.336;2023-03-05T10:38:15;101244.52;;;4.30;36.83
63663;BME280;49815;51.618;0.336;2023-03-05T10:40:35;101237.26;;;5.40;36.16
63663;BME280;49815;51.618;0.336;2023-03-05T10:43:04;101235.34;;;4.11;37.36
63663;BME280;49815;51.618;0.336;2023-03-05T10:45:27;101228.35;;;3.30;38.62
63663;BME280;49815;51.618;0.336;2023-03-05T10:47:53;101221.28;;;2.95;39.56
63663;BME280;49815;51.618;0.336;2023-03-05T10:50:16;101220.39;;;4.09;38.48
63663;BME280;49815;51.618;0.336;2023-03-05T10:52:40;101209.65;;;6.13;35.93
63663;BME280;49815;51.618;0.336;2023-03-05T10:55:12;101211.76;;;6.18;34.55
63663;BME280;49815;51.618;0.336;2023-03-05T10:57:31;101207.01;;;6.21;35.79
63663;BME280;49815;51.618;0.336;2023-03-05T11:00:00;101203.59;;;7.10;33.82
63663;BME280;49815;51.618;0.336;2023-03-05T11:02:21;101208.32;;;6.46;35.06
63663;BME280;49815;51.618;0.336;2023-03-05T11:04:46;101208.10;;;5.83;34.38
63663;BME280;49815;51.618;0.336;2023-03-05T11:09:37;101192.89;;;4.51;36.37
63663;BME280;49815;51.618;0.336;2023-03-05T11:12:11;101189.46;;;6.57;34.60
63663;BME280;49815;51.618;0.336;2023-03-05T11:14:29;101178.47;;;6.50;34.31
63663;BME280;49815;51.618;0.336;2023-03-05T11:16:54;101170.88;;;6.33;34.67
63663;BME280;49815;51.618;0.336;2023-03-05T11:19:20;101170.51;;;6.30;34.28
63663;BME280;49815;51.618;0.336;2023-03-05T11:21:46;101163.70;;;7.44;32.68
63663;BME280;49815;51.618;0.336;2023-03-05T11:24:12;101174.41;;;2.29;39.96
63663;BME280;49815;51.618;0.336;2023-03-05T11:26:35;101160.51;;;5.64;36.98
63663;BME280;49815;51.618;0.336;2023-03-05T11:29:02;101160.25;;;5.62;35.86
63663;BME280;49815;51.618;0.336;2023-03-05T11:31:28;101162.29;;;4.80;36.64
63663;BME280;49815;51.618;0.336;2023-03-05T11:33:57;101158.16;;;5.23;35.69
63663;BME280;49815;51.618;0.336;2023-03-05T11:36:23;101152.92;;;6.70;34.43
63663;BME280;49815;51.618;0.336;2023-03-05T11:38:47;101151.93;;;6.96;33.65
63663;BME280;49815;51.618;0.336;2023-03-05T11:41:09;101150.54;;;6.94;33.81
63663;BME280;49815;51.618;0.336;2023-03-05T11:43:34;101137.84;;;7.39;33.75
63663;BME280;49815;51.618;0.336;2023-03-05T11:46:02;101138.20;;;7.55;33.18
63663;BME280;49815;51.618;0.336;2023-03-05T11:48:27;101146.38;;;6.05;34.31
63663;BME280;49815;51.618;0.336;2023-03-05T11:50:53;101145.64;;;4.96;36.77
63663;BME280;49815;51.618;0.336;2023-03-05T11:53:19;101143.87;;;4.90;35.86
63663;BME280;49815;51.618;0.336;2023-03-05T11:55:43;101137.12;;;6.54;34.25
63663;BME280;49815;51.618;0.336;2023-03-05T11:58:22;101132.14;;;7.09;33.87
63663;BME280;49815;51.618;0.336;2023-03-05T12:00:35;101123.84;;;6.61;33.78
63663;BME280;49815;51.618;0.336;2023-03-05T12:03:03;101114.83;;;7.41;33.20
63663;BME280;49815;51.618;0.336;2023-03-05T12:05:24;101111.42;;;7.10;34.49
63663;BME280;49815;51.618;0.336;2023-03-05T12:07:51;101111.70;;;6.59;34.55
63663;BME280;49815;51.618;0.336;2023-03-05T12:10:16;101104.34;;;6.76;33.93
63663;BME280;49815;51.618;0.336;2023-03-05T12:12:46;101097.38;;;8.42;32.80
63663;BME280;49815;51.618;0.336;2023-03-05T12:17:36;101079.15;;;8.68;31.47
63663;BME280;49815;51.618;0.336;2023-03-05T12:20:01;101072.06;;;8.04;32.44
63663;BME280;49815;51.618;0.336;2023-03-05T12:22:24;101073.20;;;7.67;31.98
63663;BME280;49815;51.618;0.336;2023-03-05T12:24:49;101068.11;;;7.29;32.60
63663;BME280;49815;51.618;0.336;2023-03-05T12:27:16;101062.76;;;8.34;32.27
63663;BME280;49815;51.618;0.336;2023-03-05T12:29:42;101061.99;;;7.08;33.28
63663;BME280;49815;51.618;0.336;2023-03-05T12:34:44;101051.04;;;7.84;32.87
63663;BME280;49815;51.618;0.336;2023-03-05T12:36:55;101046.49;;;7.30;32.17
63663;BME280;49815;51.618;0.336;2023-03-05T12:41:46;101040.50;;;8.29;33.05
63663;BME280;49815;51.618;0.336;2023-03-05T12:44:19;101037.15;;;7.80;32.51
63663;BME280;49815;51.618;0.336;2023-03-05T12:46:38;101033.31;;;8.34;32.67
63663;BME280;49815;51.618;0.336;2023-03-05T12:51:34;101032.10;;;7.82;32.62
63663;BME280;49815;51.618;0.336;2023-03-05T12:53:55;101024.66;;;8.17;31.77
63663;BME280;49815;51.618;0.336;2023-03-05T12:56:21;101026.90;;;7.67;31.87
63663;BME280;49815;51.618;0.336;2023-03-05T12:58:48;101016.15;;;7.22;33.31
63663;BME280;49815;51.618;0.336;2023-03-05T13:01:22;101007.75;;;5.98;34.16
63663;BME280;49815;51.618;0.336;2023-03-05T13:03:43;101002.06;;;5.50;35.61